createdAt,value
2023-02-22T00:00:19.010Z,51.02
2023-02-22T00:01:36.248Z,50.50
2023-02-22T00:02:34.375Z,50.04
2023-02-22T00:03:32.606Z,49.76
2023-02-22T00:04:29.355Z,50.45
2023-02-22T00:05:28.351Z,49.51
2023-02-22T00:06:25.234Z,49.65
2023-02-22T00:07:23.882Z,50.08
2023-02-22T00:08:25.115Z,50.39
2023-02-22T00:09:21.849Z,50.74
2023-02-22T00:10:24.101Z,51.26
2023-02-22T00:11:20.907Z,50.85
2023-02-22T00:12:17.647Z,50.64
2023-02-22T00:13:14.963Z,50.46
2023-02-22T00:14:12.578Z,50.81
2023-02-22T00:15:10.448Z,50.74
2023-02-22T00:16:07.409Z,51.67
2023-02-22T00:17:04.269Z,50.56
2023-02-22T00:18:02.209Z,50.64
2023-02-22T00:18:59.051Z,50.73
2023-02-22T00:19:55.764Z,50.86
2023-02-22T00:20:52.551Z,50.56
2023-02-22T00:21:54.396Z,50.36
2023-02-22T00:22:52.130Z,50.57
2023-02-22T00:23:49.690Z,50.29
2023-02-22T00:24:46.457Z,50.45
2023-02-22T00:25:43.214Z,50.67
2023-02-22T00:26:39.942Z,50.83
2023-02-22T00:27:36.923Z,50.29
2023-02-22T00:28:33.683Z,49.93
2023-02-22T00:29:30.510Z,49.94
2023-02-22T00:30:31.927Z,49.80
2023-02-22T00:31:28.770Z,50.81
2023-02-22T00:32:25.558Z,50.39
2023-02-22T00:33:23.210Z,50.69
2023-02-22T00:34:19.906Z,51.03
2023-02-22T00:35:20.194Z,51.71
2023-02-22T00:36:17.026Z,52.06
2023-02-22T00:37:13.873Z,51.76
2023-02-22T00:38:10.741Z,52.07
2023-02-22T00:39:08.447Z,52.01
2023-02-22T00:40:08.498Z,52.43
2023-02-22T00:41:05.362Z,52.85
2023-02-22T00:42:02.661Z,52.50
2023-02-22T00:43:01.917Z,52.82
2023-02-22T00:43:58.653Z,53.50
2023-02-22T00:44:55.464Z,53.33
2023-02-22T00:45:52.295Z,53.01
2023-02-22T00:46:49.808Z,53.12
2023-02-22T00:47:46.918Z,52.78
2023-02-22T00:48:44.613Z,53.15
2023-02-22T00:49:44.112Z,53.40
2023-02-22T00:50:41.026Z,52.77
2023-02-22T00:51:37.770Z,52.40
2023-02-22T00:52:36.116Z,52.40
2023-02-22T00:53:32.921Z,52.09
2023-02-22T00:54:29.619Z,52.99
2023-02-22T00:55:31.554Z,52.69
2023-02-22T00:56:28.795Z,53.67
2023-02-22T00:57:25.542Z,54.12
2023-02-22T00:58:24.351Z,54.10
2023-02-22T00:59:21.557Z,54.04
2023-02-22T01:00:30.560Z,54.67
2023-02-22T01:01:27.963Z,53.82
2023-02-22T01:02:24.760Z,53.44
2023-02-22T01:03:21.873Z,53.89
2023-02-22T01:04:18.875Z,53.83
2023-02-22T01:05:16.411Z,53.78
2023-02-22T01:06:13.256Z,53.88
2023-02-22T01:07:10.029Z,53.85
2023-02-22T01:08:09.721Z,52.85
2023-02-22T01:09:07.774Z,52.77
2023-02-22T01:10:06.070Z,52.52
2023-02-22T01:11:02.852Z,52.42
2023-02-22T01:11:59.723Z,52.71
2023-02-22T01:12:57.628Z,52.57
2023-02-22T01:13:55.624Z,52.71
2023-02-22T01:14:52.409Z,52.78
2023-02-22T01:15:49.968Z,53.48
2023-02-22T01:16:46.853Z,53.24
2023-02-22T01:17:44.132Z,53.46
2023-02-22T01:18:41.799Z,52.72
2023-02-22T01:19:42.573Z,52.91
2023-02-22T01:20:39.616Z,52.67
2023-02-22T01:21:36.409Z,53.01
2023-02-22T01:22:33.202Z,53.50
2023-02-22T01:23:30.047Z,54.29
2023-02-22T01:24:26.805Z,54.29
2023-02-22T01:25:26.798Z,54.61
2023-02-22T01:26:23.580Z,54.26
2023-02-22T01:27:20.362Z,54.76
2023-02-22T01:28:17.697Z,54.42
2023-02-22T01:29:16.581Z,54.56
2023-02-22T01:30:15.299Z,55.13
2023-02-22T01:31:12.669Z,55.45
2023-02-22T01:32:12.009Z,55.74
2023-02-22T01:33:09.647Z,55.78
2023-02-22T01:34:08.517Z,55.91
2023-02-22T01:35:08.729Z,56.02
2023-02-22T01:36:11.387Z,55.63
2023-02-22T01:37:08.305Z,55.77
2023-02-22T01:38:05.315Z,55.54
2023-02-22T01:39:02.316Z,55.60
2023-02-22T01:39:59.058Z,55.13
2023-02-22T01:40:55.933Z,55.24
2023-02-22T01:41:53.855Z,55.39
2023-02-22T01:42:57.877Z,54.62
2023-02-22T01:43:54.706Z,54.87
2023-02-22T01:45:29.012Z,55.59
2023-02-22T01:46:27.834Z,55.66
2023-02-22T01:47:24.624Z,55.78
2023-02-22T01:48:29.824Z,56.10
2023-02-22T01:49:33.442Z,56.13
2023-02-22T01:50:35.112Z,56.24
2023-02-22T01:51:39.654Z,55.96
2023-02-22T01:52:38.027Z,56.44
2023-02-22T01:53:40.721Z,56.21
2023-02-22T01:54:50.869Z,55.71
2023-02-22T01:55:49.307Z,55.31
2023-02-22T01:56:54.145Z,54.64
2023-02-22T01:57:51.468Z,54.57
2023-02-22T01:58:54.220Z,55.41
2023-02-22T01:59:56.527Z,55.27
2023-02-22T02:00:53.801Z,55.26
2023-02-22T02:01:50.659Z,55.59
2023-02-22T02:02:54.062Z,55.09
2023-02-22T02:03:54.791Z,54.89
2023-02-22T02:04:55.138Z,54.83
2023-02-22T02:05:54.262Z,54.34
2023-02-22T02:06:54.600Z,54.62
2023-02-22T02:07:51.495Z,54.68
2023-02-22T02:08:59.987Z,54.43
2023-02-22T02:10:04.390Z,54.97
2023-02-22T02:11:04.190Z,54.80
2023-02-22T02:12:02.721Z,55.05
2023-02-22T02:12:59.940Z,55.36
2023-02-22T02:13:58.345Z,55.05
2023-02-22T02:15:31.281Z,55.44
2023-02-22T02:16:56.197Z,55.79
2023-02-22T02:17:57.276Z,55.89
2023-02-22T02:18:54.919Z,56.36
2023-02-22T02:20:30.647Z,56.64
2023-02-22T02:21:55.300Z,56.17
2023-02-22T02:23:25.957Z,56.20
2023-02-22T02:24:34.625Z,56.50
2023-02-22T02:25:58.491Z,56.21
2023-02-22T02:27:03.186Z,55.92
2023-02-22T02:28:44.492Z,56.55
2023-02-22T02:30:02.431Z,56.80
2023-02-22T02:31:44.541Z,57.48
2023-02-22T02:33:12.932Z,57.44
2023-02-22T02:34:24.267Z,56.62
2023-02-22T02:35:48.024Z,57.23
2023-02-22T02:37:01.081Z,57.33
2023-02-22T02:38:09.767Z,57.53
2023-02-22T02:39:29.970Z,56.90
2023-02-22T02:40:29.553Z,57.33
2023-02-22T02:41:40.027Z,57.61
2023-02-22T02:42:44.177Z,57.26
2023-02-22T02:43:52.020Z,56.79
2023-02-22T02:45:02.692Z,56.66
2023-02-22T02:46:21.366Z,56.46
2023-02-22T02:47:27.249Z,56.69
2023-02-22T02:48:29.007Z,56.46
2023-02-22T02:49:39.311Z,55.94
2023-02-22T02:50:44.791Z,56.24
2023-02-22T02:51:52.322Z,56.30
2023-02-22T02:52:51.823Z,56.17
2023-02-22T02:53:51.415Z,56.36
2023-02-22T02:54:50.343Z,56.52
2023-02-22T02:55:47.270Z,57.31
2023-02-22T02:56:44.022Z,57.52
2023-02-22T02:57:40.842Z,57.54
2023-02-22T02:58:53.085Z,57.40
2023-02-22T02:59:50.099Z,56.71
2023-02-22T03:00:51.696Z,56.54
2023-02-22T03:02:20.699Z,56.64
2023-02-22T03:03:58.056Z,56.45
2023-02-22T03:05:16.304Z,56.95
2023-02-22T03:06:28.234Z,57.20
2023-02-22T03:07:45.449Z,56.88
2023-02-22T03:08:58.285Z,56.90
2023-02-22T03:10:23.180Z,57.39
2023-02-22T03:11:25.137Z,57.50
2023-02-22T03:12:27.791Z,57.14
2023-02-22T03:13:33.529Z,57.61
2023-02-22T03:14:48.702Z,57.57
2023-02-22T03:16:20.980Z,58.93
2023-02-22T03:17:32.589Z,59.80
2023-02-22T03:18:40.600Z,60.43
2023-02-22T03:20:19.185Z,61.86
2023-02-22T03:21:36.355Z,61.29
2023-02-22T03:22:57.768Z,62.25
2023-02-22T03:24:10.362Z,62.73
2023-02-22T03:25:22.477Z,62.30
2023-02-22T03:26:34.729Z,62.03
2023-02-22T03:27:50.326Z,62.33
2023-02-22T03:28:51.130Z,63.21
2023-02-22T03:29:53.900Z,62.27
2023-02-22T03:31:16.392Z,62.95
2023-02-22T03:32:20.774Z,63.55
2023-02-22T03:33:55.807Z,63.48
2023-02-22T03:35:06.589Z,63.70
2023-02-22T03:36:20.590Z,63.99
2023-02-22T03:37:23.652Z,64.05
2023-02-22T03:38:21.605Z,63.91
2023-02-22T03:39:20.602Z,63.45
2023-02-22T03:40:30.134Z,63.17
2023-02-22T03:41:30.201Z,62.78
2023-02-22T03:42:35.612Z,62.09
2023-02-22T03:43:43.119Z,62.67
2023-02-22T03:44:44.620Z,62.79
2023-02-22T03:45:45.761Z,63.73
2023-02-22T03:46:44.361Z,62.76
2023-02-22T03:47:52.936Z,62.13
2023-02-22T03:49:09.546Z,61.69
2023-02-22T03:50:15.347Z,61.44
2023-02-22T03:51:16.736Z,61.33
2023-02-22T03:52:13.998Z,61.42
2023-02-22T03:53:11.551Z,61.19
2023-02-22T03:54:16.289Z,61.27
2023-02-22T03:55:17.756Z,61.30
2023-02-22T03:56:23.016Z,61.34
2023-02-22T03:57:29.584Z,62.01
2023-02-22T03:58:32.350Z,62.00
2023-02-22T03:59:29.796Z,61.77
2023-02-22T04:00:30.761Z,61.19
2023-02-22T04:01:27.811Z,60.68
2023-02-22T04:02:24.530Z,60.72
2023-02-22T04:03:22.489Z,60.99
2023-02-22T04:04:21.311Z,61.36
2023-02-22T04:05:18.181Z,61.55
2023-02-22T04:06:15.135Z,60.52
2023-02-22T04:07:12.158Z,61.97
2023-02-22T04:08:27.450Z,61.76
2023-02-22T04:09:24.233Z,61.81
2023-02-22T04:10:21.396Z,61.81
2023-02-22T04:11:18.320Z,62.05
2023-02-22T04:12:15.154Z,62.61
2023-02-22T04:13:11.985Z,62.86
2023-02-22T04:14:09.029Z,62.77
2023-02-22T04:15:08.256Z,62.52
2023-02-22T04:16:05.423Z,62.57
2023-02-22T04:17:02.280Z,61.93
2023-02-22T04:17:59.501Z,61.99
2023-02-22T04:18:56.256Z,62.78
2023-02-22T04:19:53.045Z,62.60
2023-02-22T04:20:49.863Z,63.47
2023-02-22T04:21:46.687Z,62.51
2023-02-22T04:22:43.408Z,61.18
2023-02-22T04:23:40.185Z,61.23
2023-02-22T04:24:37.130Z,61.58
2023-02-22T04:25:34.019Z,61.32
2023-02-22T04:26:30.864Z,60.32
2023-02-22T04:27:27.622Z,60.13
2023-02-22T04:28:24.409Z,59.91
2023-02-22T04:29:21.433Z,60.44
2023-02-22T04:30:21.180Z,60.82
2023-02-22T04:31:18.377Z,60.54
2023-02-22T04:32:16.105Z,61.40
2023-02-22T04:33:13.885Z,61.45
2023-02-22T04:34:10.649Z,61.00
2023-02-22T04:35:08.053Z,60.38
2023-02-22T04:36:05.044Z,60.85
2023-02-22T04:37:02.171Z,60.71
2023-02-22T04:37:59.106Z,59.98
2023-02-22T04:38:55.841Z,60.89
2023-02-22T04:39:52.684Z,61.40
2023-02-22T04:40:54.113Z,60.95
2023-02-22T04:41:50.963Z,61.24
2023-02-22T04:42:47.776Z,61.33
2023-02-22T04:43:44.941Z,61.17
2023-02-22T04:44:41.797Z,61.12
2023-02-22T04:45:38.533Z,61.77
2023-02-22T04:46:35.252Z,61.39
2023-02-22T04:47:31.984Z,61.82
2023-02-22T04:48:28.727Z,62.64
2023-02-22T04:49:25.519Z,63.06
2023-02-22T04:50:22.293Z,64.36
2023-02-22T04:51:20.216Z,64.47
2023-02-22T04:52:16.996Z,64.59
2023-02-22T04:53:13.769Z,65.77
2023-02-22T04:54:10.646Z,65.23
2023-02-22T04:55:07.741Z,64.41
2023-02-22T04:56:04.785Z,65.49
2023-02-22T04:57:01.453Z,65.20
2023-02-22T04:57:58.262Z,66.69
2023-02-22T04:58:55.066Z,66.88
2023-02-22T04:59:51.891Z,66.29
2023-02-22T05:00:48.722Z,65.73
2023-02-22T05:01:46.358Z,64.83
2023-02-22T05:02:43.329Z,65.19
2023-02-22T05:03:40.391Z,66.51
2023-02-22T05:04:38.273Z,67.38
2023-02-22T05:05:35.234Z,68.37
2023-02-22T05:06:32.021Z,69.43
2023-02-22T05:07:28.857Z,69.30
2023-02-22T05:08:25.629Z,68.44
2023-02-22T05:09:22.453Z,68.30
2023-02-22T05:10:19.523Z,68.39
2023-02-22T05:11:16.675Z,68.17
2023-02-22T05:12:13.632Z,68.15
2023-02-22T05:13:10.403Z,68.89
2023-02-22T05:14:07.889Z,69.43
2023-02-22T05:15:07.209Z,70.34
2023-02-22T05:16:04.334Z,70.95
2023-02-22T05:17:02.588Z,72.25
2023-02-22T05:17:59.293Z,72.28
2023-02-22T05:18:56.027Z,72.63
2023-02-22T05:19:53.171Z,72.51
2023-02-22T05:20:49.908Z,71.99
2023-02-22T05:21:46.698Z,71.38
2023-02-22T05:22:43.435Z,72.76
2023-02-22T05:23:40.442Z,72.60
2023-02-22T05:24:37.220Z,73.45
2023-02-22T05:25:34.432Z,74.56
2023-02-22T05:26:31.143Z,74.88
2023-02-22T05:27:27.903Z,76.27
2023-02-22T05:28:24.819Z,74.27
2023-02-22T05:29:21.660Z,73.93
2023-02-22T05:30:26.944Z,74.22
2023-02-22T05:31:23.828Z,73.72
2023-02-22T05:32:20.710Z,76.02
2023-02-22T05:33:17.840Z,74.93
2023-02-22T05:34:15.257Z,74.14
2023-02-22T05:35:12.053Z,74.03
2023-02-22T05:36:10.013Z,74.05
2023-02-22T05:37:07.167Z,74.20
2023-02-22T05:38:05.297Z,72.25
2023-02-22T05:39:02.127Z,73.39
2023-02-22T05:39:58.961Z,75.61
2023-02-22T05:40:56.977Z,75.84
2023-02-22T05:41:53.792Z,75.07
2023-02-22T05:42:51.140Z,75.09
2023-02-22T05:43:48.075Z,74.51
2023-02-22T05:44:44.903Z,74.72
2023-02-22T05:45:42.087Z,74.68
2023-02-22T05:46:38.854Z,72.46
2023-02-22T05:47:35.712Z,73.96
2023-02-22T05:48:32.741Z,74.15
2023-02-22T05:49:29.607Z,73.63
2023-02-22T05:50:27.100Z,74.92
2023-02-22T05:51:24.080Z,75.33
2023-02-22T05:52:21.219Z,76.85
2023-02-22T05:53:18.032Z,76.53
2023-02-22T05:54:14.879Z,76.77
2023-02-22T05:55:14.400Z,75.74
2023-02-22T05:56:11.252Z,76.26
2023-02-22T05:57:08.169Z,76.32
2023-02-22T05:58:05.983Z,75.62
2023-02-22T05:59:02.976Z,75.20
2023-02-22T05:59:59.922Z,76.43
2023-02-22T06:00:56.859Z,75.23
2023-02-22T06:01:53.629Z,74.53
2023-02-22T06:02:58.445Z,74.11
2023-02-22T06:03:55.367Z,75.02
2023-02-22T06:04:52.284Z,75.45
2023-02-22T06:05:49.085Z,73.96
2023-02-22T06:06:45.956Z,73.58
2023-02-22T06:07:42.731Z,75.20
2023-02-22T06:08:39.510Z,73.36
2023-02-22T06:09:36.256Z,71.93
2023-02-22T06:10:33.631Z,71.00
2023-02-22T06:11:30.428Z,71.08
2023-02-22T06:12:27.266Z,69.85
2023-02-22T06:13:24.153Z,68.39
2023-02-22T06:14:20.926Z,68.09
2023-02-22T06:15:19.824Z,68.90
2023-02-22T06:16:16.734Z,68.28
2023-02-22T06:17:16.122Z,68.74
2023-02-22T06:18:12.815Z,69.30
2023-02-22T06:19:09.632Z,70.83
2023-02-22T06:20:08.182Z,70.22
2023-02-22T06:21:09.050Z,70.63
2023-02-22T06:22:06.967Z,70.10
2023-02-22T06:23:03.785Z,69.59
2023-02-22T06:24:04.116Z,70.23
2023-02-22T06:25:03.707Z,70.16
2023-02-22T06:26:00.554Z,70.38
2023-02-22T06:26:59.716Z,70.26
2023-02-22T06:27:56.489Z,69.70
2023-02-22T06:28:53.296Z,69.20
2023-02-22T06:29:50.021Z,69.19
2023-02-22T06:30:46.815Z,69.81
2023-02-22T06:31:43.757Z,69.43
2023-02-22T06:32:40.897Z,70.09
2023-02-22T06:33:37.709Z,68.35
2023-02-22T06:34:34.570Z,67.96
2023-02-22T06:35:31.330Z,67.21
2023-02-22T06:36:28.116Z,67.03
2023-02-22T06:37:24.926Z,66.20
2023-02-22T06:38:26.033Z,66.31
2023-02-22T06:39:22.829Z,64.54
2023-02-22T06:40:19.738Z,64.14
2023-02-22T06:41:16.950Z,64.87
2023-02-22T06:42:13.874Z,65.27
2023-02-22T06:43:11.122Z,65.23
2023-02-22T06:44:08.729Z,65.21
2023-02-22T06:45:06.051Z,64.14
2023-02-22T06:46:02.870Z,63.08
2023-02-22T06:46:59.966Z,62.82
2023-02-22T06:47:56.804Z,62.65
2023-02-22T06:48:53.532Z,61.85
2023-02-22T06:49:58.377Z,61.03
2023-02-22T06:50:55.250Z,60.58
2023-02-22T06:51:52.261Z,61.32
2023-02-22T06:52:49.073Z,61.11
2023-02-22T06:53:45.928Z,60.34
2023-02-22T06:54:43.498Z,61.25
2023-02-22T06:55:40.180Z,61.12
2023-02-22T06:56:36.904Z,61.00
2023-02-22T06:57:33.597Z,60.60
2023-02-22T06:58:30.452Z,60.70
2023-02-22T06:59:28.134Z,61.41
2023-02-22T07:00:27.156Z,61.40
2023-02-22T07:01:24.008Z,61.29
2023-02-22T07:02:20.879Z,61.44
2023-02-22T07:03:17.738Z,61.86
2023-02-22T07:04:15.929Z,62.24
2023-02-22T07:05:13.163Z,62.22
2023-02-22T07:06:10.845Z,61.57
2023-02-22T07:07:07.660Z,61.73
2023-02-22T07:08:07.004Z,61.53
2023-02-22T07:09:04.284Z,61.13
2023-02-22T07:10:02.335Z,61.43
2023-02-22T07:10:59.205Z,60.81
2023-02-22T07:11:56.247Z,61.05
2023-02-22T07:12:53.988Z,61.01
2023-02-22T07:13:50.716Z,61.07
2023-02-22T07:14:47.472Z,60.83
2023-02-22T07:15:44.976Z,61.38
2023-02-22T07:16:41.821Z,60.81
2023-02-22T07:17:41.244Z,60.02
2023-02-22T07:18:38.791Z,59.89
2023-02-22T07:19:35.604Z,59.35
2023-02-22T07:20:33.088Z,59.12
2023-02-22T07:21:30.959Z,58.67
2023-02-22T07:22:27.686Z,58.36
2023-02-22T07:23:24.683Z,58.86
2023-02-22T07:24:21.376Z,59.35
2023-02-22T07:25:19.130Z,59.37
2023-02-22T07:26:15.856Z,59.12
2023-02-22T07:27:12.634Z,58.56
2023-02-22T07:28:11.103Z,58.28
2023-02-22T07:29:08.156Z,58.45
2023-02-22T07:30:07.626Z,58.21
2023-02-22T07:31:05.114Z,58.21
2023-02-22T07:32:03.046Z,57.67
2023-02-22T07:33:02.121Z,57.48
2023-02-22T07:33:58.930Z,57.36
2023-02-22T07:34:55.668Z,56.62
2023-02-22T07:35:52.483Z,56.48
2023-02-22T07:36:49.264Z,56.71
2023-02-22T07:37:45.991Z,56.42
2023-02-22T07:38:42.721Z,56.92
2023-02-22T07:39:42.205Z,56.59
2023-02-22T07:40:39.422Z,56.73
2023-02-22T07:41:36.213Z,56.60
2023-02-22T07:42:33.207Z,56.43
2023-02-22T07:43:31.567Z,56.35
2023-02-22T07:44:28.303Z,56.64
2023-02-22T07:45:28.362Z,55.92
2023-02-22T07:46:25.091Z,56.28
2023-02-22T07:47:21.875Z,56.12
2023-02-22T07:48:20.987Z,55.48
2023-02-22T07:49:18.309Z,56.00
2023-02-22T07:50:19.919Z,56.14
2023-02-22T07:51:18.328Z,55.00
2023-02-22T07:52:15.313Z,54.63
2023-02-22T07:53:15.331Z,54.39
2023-02-22T07:54:12.100Z,54.91
2023-02-22T07:55:08.859Z,54.20
2023-02-22T07:56:06.071Z,54.40
2023-02-22T07:57:03.496Z,54.09
2023-02-22T07:58:03.429Z,53.98
2023-02-22T07:59:01.510Z,53.76
2023-02-22T07:59:58.256Z,54.07
2023-02-22T08:00:55.467Z,53.53
2023-02-22T08:01:52.213Z,53.57
2023-02-22T08:02:49.081Z,53.20
2023-02-22T08:03:47.600Z,52.00
2023-02-22T08:04:44.467Z,52.51
2023-02-22T08:05:45.602Z,52.31
2023-02-22T08:06:46.362Z,52.52
2023-02-22T08:07:43.386Z,51.87
2023-02-22T08:08:40.584Z,51.82
2023-02-22T08:09:37.512Z,51.79
2023-02-22T08:10:36.861Z,52.05
2023-02-22T08:11:33.822Z,51.95
2023-02-22T08:12:31.097Z,51.68
2023-02-22T08:13:27.972Z,52.53
2023-02-22T08:14:24.738Z,52.29
2023-02-22T08:15:26.225Z,52.55
2023-02-22T08:16:23.003Z,51.96
2023-02-22T08:17:19.778Z,50.90
2023-02-22T08:18:19.199Z,52.19
2023-02-22T08:19:16.297Z,51.13
2023-02-22T08:20:13.759Z,50.91
2023-02-22T08:21:10.675Z,50.53
2023-02-22T08:22:07.513Z,51.24
2023-02-22T08:23:05.392Z,51.13
2023-02-22T08:24:02.081Z,51.35
2023-02-22T08:24:59.976Z,50.77
2023-02-22T08:25:56.812Z,51.01
2023-02-22T08:26:53.550Z,51.86
2023-02-22T08:27:50.291Z,51.88
2023-02-22T08:28:48.263Z,51.04
2023-02-22T08:29:47.800Z,51.27
2023-02-22T08:30:44.568Z,50.80
2023-02-22T08:31:41.340Z,51.08
2023-02-22T08:32:38.181Z,50.90
2023-02-22T08:33:35.625Z,50.45
2023-02-22T08:34:32.354Z,50.23
2023-02-22T08:35:31.791Z,50.11
2023-02-22T08:36:29.516Z,49.78
2023-02-22T08:37:26.231Z,49.89
2023-02-22T08:38:27.456Z,50.06
2023-02-22T08:39:24.273Z,50.08
2023-02-22T08:40:23.788Z,49.82
2023-02-22T08:41:20.698Z,49.48
2023-02-22T08:42:17.491Z,49.61
2023-02-22T08:43:14.314Z,49.55
2023-02-22T08:44:11.093Z,49.15
2023-02-22T08:45:08.272Z,49.38
2023-02-22T08:46:05.151Z,48.99
2023-02-22T08:47:02.158Z,48.91
2023-02-22T08:47:59.598Z,48.69
2023-02-22T08:48:56.343Z,48.84
2023-02-22T08:49:53.304Z,49.03
2023-02-22T08:50:50.054Z,48.97
2023-02-22T08:51:47.440Z,49.07
2023-02-22T08:52:44.221Z,48.49
2023-02-22T08:53:40.909Z,48.19
2023-02-22T08:54:37.668Z,48.35
2023-02-22T08:55:37.428Z,48.30
2023-02-22T08:56:34.441Z,48.04
2023-02-22T08:57:31.863Z,47.95
2023-02-22T08:58:28.565Z,47.73
2023-02-22T08:59:25.370Z,47.94
2023-02-22T09:00:25.372Z,47.80
2023-02-22T09:01:32.738Z,47.94
2023-02-22T09:02:29.877Z,48.47
2023-02-22T09:03:26.624Z,47.93
2023-02-22T09:04:23.493Z,47.53
2023-02-22T09:05:20.678Z,47.44
2023-02-22T09:06:20.250Z,47.29
2023-02-22T09:07:18.140Z,48.13
2023-02-22T09:08:16.069Z,47.29
2023-02-22T09:09:12.796Z,47.30
2023-02-22T09:10:16.099Z,47.12
2023-02-22T09:11:12.878Z,47.46
2023-02-22T09:12:09.940Z,47.45
2023-02-22T09:13:06.932Z,47.18
2023-02-22T09:14:03.761Z,47.14
2023-02-22T09:15:00.493Z,47.25
2023-02-22T09:15:57.296Z,47.38
2023-02-22T09:16:54.467Z,47.42
2023-02-22T09:17:52.207Z,47.08
2023-02-22T09:18:49.024Z,46.78
2023-02-22T09:19:45.758Z,46.98
2023-02-22T09:20:42.443Z,46.90
2023-02-22T09:21:40.414Z,46.57
2023-02-22T09:22:37.220Z,46.48
2023-02-22T09:23:34.759Z,46.48
2023-02-22T09:24:31.532Z,45.97
2023-02-22T09:25:29.636Z,45.75
2023-02-22T09:26:27.846Z,46.08
2023-02-22T09:27:27.985Z,45.93
2023-02-22T09:28:25.017Z,46.40
2023-02-22T09:29:24.128Z,45.97
2023-02-22T09:30:25.069Z,46.58
2023-02-22T09:31:22.464Z,46.43
2023-02-22T09:32:19.666Z,46.49
2023-02-22T09:33:19.256Z,46.42
2023-02-22T09:34:16.695Z,46.45
2023-02-22T09:35:13.453Z,46.04
2023-02-22T09:36:10.203Z,45.87
2023-02-22T09:37:08.839Z,45.52
2023-02-22T09:38:06.496Z,46.38
2023-02-22T09:39:05.160Z,45.67
2023-02-22T09:40:02.163Z,45.40
2023-02-22T09:41:12.467Z,45.35
2023-02-22T09:42:17.968Z,45.27
2023-02-22T09:43:35.753Z,45.13
2023-02-22T09:44:44.537Z,44.68
2023-02-22T09:46:13.723Z,45.02
2023-02-22T09:47:37.962Z,45.21
2023-02-22T09:48:59.411Z,44.62
2023-02-22T09:50:05.300Z,44.77
2023-02-22T09:51:15.224Z,44.84
2023-02-22T09:52:25.099Z,45.26
2023-02-22T09:53:36.167Z,44.76
2023-02-22T09:54:52.990Z,44.65
2023-02-22T09:55:52.823Z,45.39
2023-02-22T09:56:55.634Z,44.85
2023-02-22T09:57:55.541Z,44.62
2023-02-22T09:58:56.549Z,44.70
2023-02-22T10:00:13.367Z,44.75
2023-02-22T10:01:32.823Z,44.92
2023-02-22T10:02:38.103Z,45.20
2023-02-22T10:03:46.773Z,44.55
2023-02-22T10:04:53.117Z,44.58
2023-02-22T10:06:10.389Z,44.78
2023-02-22T10:07:18.646Z,44.59
2023-02-22T10:08:19.112Z,44.43
2023-02-22T10:09:15.942Z,43.98
2023-02-22T10:10:19.005Z,43.85
2023-02-22T10:11:34.349Z,44.33
2023-02-22T10:13:00.209Z,44.24
2023-02-22T10:14:15.516Z,44.49
2023-02-22T10:15:34.398Z,43.54
2023-02-22T10:16:34.181Z,44.11
2023-02-22T10:17:35.735Z,44.15
2023-02-22T10:19:00.229Z,44.59
2023-02-22T10:20:13.454Z,43.96
2023-02-22T10:21:31.601Z,43.76
2023-02-22T10:22:57.555Z,44.36
2023-02-22T10:24:18.024Z,44.05
2023-02-22T10:25:20.677Z,43.76
2023-02-22T10:26:35.133Z,43.91
2023-02-22T10:27:42.649Z,43.76
2023-02-22T10:28:50.462Z,44.21
2023-02-22T10:29:59.017Z,43.65
2023-02-22T10:31:02.559Z,43.42
2023-02-22T10:32:04.963Z,43.57
2023-02-22T10:33:09.497Z,43.02
2023-02-22T10:34:15.425Z,43.22
2023-02-22T10:35:33.016Z,42.70
2023-02-22T10:36:29.846Z,42.68
2023-02-22T10:37:32.637Z,42.77
2023-02-22T10:38:33.605Z,42.61
2023-02-22T10:39:35.381Z,42.28
2023-02-22T10:40:32.506Z,42.57
2023-02-22T10:41:33.711Z,42.22
2023-02-22T10:42:30.453Z,42.52
2023-02-22T10:43:27.527Z,42.86
2023-02-22T10:44:24.944Z,43.07
2023-02-22T10:45:24.333Z,42.35
2023-02-22T10:46:23.944Z,42.44
2023-02-22T10:47:22.132Z,42.64
2023-02-22T10:48:21.153Z,42.41
2023-02-22T10:49:23.752Z,42.30
2023-02-22T10:50:22.420Z,42.28
2023-02-22T10:51:19.223Z,42.35
2023-02-22T10:52:29.757Z,42.13
2023-02-22T10:53:27.886Z,41.94
2023-02-22T10:54:43.160Z,41.81
2023-02-22T10:56:12.864Z,41.79
2023-02-22T10:57:13.574Z,42.06
2023-02-22T10:58:10.984Z,42.00
2023-02-22T10:59:08.015Z,41.54
2023-02-22T11:00:30.517Z,41.20
2023-02-22T11:01:37.431Z,41.70
2023-02-22T11:02:36.034Z,41.13
2023-02-22T11:03:33.541Z,41.46
2023-02-22T11:04:47.777Z,40.85
2023-02-22T11:05:44.972Z,40.73
2023-02-22T11:06:46.131Z,41.29
2023-02-22T11:07:42.936Z,40.55
2023-02-22T11:08:41.570Z,39.98
2023-02-22T11:09:53.576Z,39.67
2023-02-22T11:10:53.726Z,39.27
2023-02-22T11:12:08.927Z,38.92
2023-02-22T11:13:37.528Z,39.33
2023-02-22T11:14:34.433Z,39.09
2023-02-22T11:15:31.395Z,39.00
2023-02-22T11:16:30.608Z,38.67
2023-02-22T11:17:35.084Z,38.31
2023-02-22T11:18:35.319Z,38.62
2023-02-22T11:19:34.412Z,38.88
2023-02-22T11:20:39.464Z,39.08
2023-02-22T11:21:36.596Z,38.92
2023-02-22T11:22:42.528Z,38.62
2023-02-22T11:23:44.823Z,38.48
2023-02-22T11:26:03.784Z,38.41
2023-02-22T11:27:06.119Z,38.44
2023-02-22T11:28:16.368Z,38.41
2023-02-22T11:29:22.754Z,37.88
2023-02-22T11:30:25.559Z,38.42
2023-02-22T11:31:29.308Z,38.49
2023-02-22T11:32:26.556Z,38.35
2023-02-22T11:33:29.232Z,38.44
2023-02-22T11:34:36.559Z,37.97
2023-02-22T11:35:39.562Z,38.62
2023-02-22T11:36:42.600Z,38.53
2023-02-22T11:37:39.614Z,38.29
2023-02-22T11:38:39.025Z,38.02
2023-02-22T11:39:35.964Z,37.85
2023-02-22T11:40:35.382Z,37.95
2023-02-22T11:41:35.274Z,38.03
2023-02-22T11:42:32.054Z,37.62
2023-02-22T11:43:28.781Z,37.02
2023-02-22T11:44:32.924Z,36.95
2023-02-22T11:45:29.866Z,36.83
2023-02-22T11:46:35.733Z,36.68
2023-02-22T11:47:32.732Z,37.04
2023-02-22T11:48:34.831Z,36.71
2023-02-22T11:49:35.678Z,36.80
2023-02-22T11:50:51.846Z,36.87
2023-02-22T11:52:16.189Z,36.52
2023-02-22T11:53:41.926Z,36.33
2023-02-22T11:54:44.369Z,36.66
2023-02-22T11:56:02.655Z,36.48
2023-02-22T11:57:16.148Z,36.53
2023-02-22T11:58:39.683Z,36.98
2023-02-22T11:59:57.946Z,36.80
2023-02-22T12:01:17.587Z,36.85
2023-02-22T12:02:51.845Z,36.64
2023-02-22T12:03:58.518Z,36.89
2023-02-22T12:05:18.522Z,36.68
2023-02-22T12:06:41.465Z,36.19
2023-02-22T12:08:19.429Z,36.11
2023-02-22T12:09:16.833Z,36.68
2023-02-22T12:10:26.547Z,36.48
2023-02-22T12:11:54.975Z,36.80
2023-02-22T12:13:13.407Z,36.46
2023-02-22T12:14:35.117Z,36.47
2023-02-22T12:16:00.271Z,36.17
2023-02-22T12:17:20.525Z,36.39
2023-02-22T12:18:42.166Z,36.06
2023-02-22T12:19:39.171Z,36.28
2023-02-22T12:20:45.681Z,36.56
2023-02-22T12:21:52.083Z,36.28
2023-02-22T12:23:12.880Z,35.79
2023-02-22T12:24:14.556Z,36.01
2023-02-22T12:25:22.910Z,36.15
2023-02-22T12:26:48.878Z,36.18
2023-02-22T12:28:24.740Z,36.33
2023-02-22T12:29:39.376Z,36.25
2023-02-22T12:30:44.346Z,36.42
2023-02-22T12:31:47.615Z,36.44
2023-02-22T12:32:54.599Z,35.93
2023-02-22T12:33:57.272Z,35.78
2023-02-22T12:35:05.523Z,36.32
2023-02-22T12:36:03.635Z,36.31
2023-02-22T12:37:11.970Z,36.67
2023-02-22T12:38:26.920Z,36.25
2023-02-22T12:39:28.436Z,36.21
2023-02-22T12:40:47.732Z,36.11
2023-02-22T12:41:52.889Z,36.20
2023-02-22T12:43:05.420Z,36.30
2023-02-22T12:44:08.898Z,36.50
2023-02-22T12:45:27.105Z,36.69
2023-02-22T12:46:32.870Z,36.48
2023-02-22T12:48:11.998Z,36.70
2023-02-22T12:49:29.926Z,36.39
2023-02-22T12:50:37.111Z,36.33
2023-02-22T12:51:50.216Z,36.52
2023-02-22T12:53:16.097Z,35.89
2023-02-22T12:54:56.468Z,35.33
2023-02-22T12:56:17.001Z,35.41
2023-02-22T12:57:39.256Z,35.09
2023-02-22T13:00:23.226Z,35.49
2023-02-22T13:01:25.653Z,35.66
2023-02-22T13:02:37.101Z,35.35
2023-02-22T13:03:42.443Z,35.53
2023-02-22T13:04:39.290Z,34.99
2023-02-22T13:05:42.943Z,34.94
2023-02-22T13:07:10.601Z,34.70
2023-02-22T13:08:10.140Z,34.80
2023-02-22T13:09:37.309Z,34.54
2023-02-22T13:10:54.607Z,34.20
2023-02-22T13:12:24.861Z,34.49
2023-02-22T13:13:37.190Z,35.00
2023-02-22T13:15:25.325Z,34.70
2023-02-22T13:16:33.614Z,35.31
2023-02-22T13:17:33.111Z,35.27
2023-02-22T13:18:59.012Z,35.67
2023-02-22T13:20:01.840Z,35.46
2023-02-22T13:21:06.605Z,35.55
2023-02-22T13:22:12.172Z,36.06
2023-02-22T13:23:34.705Z,35.89
2023-02-22T13:24:39.655Z,35.78